Thursday, August 28, 2014
01:08 UTC
  |  Log In   |  Register Free
Airport Search:

Pedro Bay Airport
(4K0)

Pedro Bay Airport Diagram
No Airport Diagram Available

FAA data valid effective July 24, 2014 until September 18, 2014 (unless otherwise noted).

 
 
 
 
 
 
 
 
 
 
 
 
 
 

Current Aviation Weather for Pedro Bay Airport (4K0)

The most recent METAR observation for PAIL was updated at: 1853 UTC
METAR Summary (Translated METAR)
PAIL
281853Z 00000KT 7SM -RA FEW017 BKN036 OVC046 13/13 A3008 RMK AO2 RAB1754 SLP186 P0002 T01280128
PAIG
(39.7 nm SW from PAIL)
281756Z AUTO 20010KT 10SM FEW014 OVC050 12/11 A3007 RMK AO2 TSNO 58004 60000 T01220105 10133 20116 RAB00E44 P0000 SLP185 $
TAF Summary (Translated TAF)
PAIL
272132Z 2722/2818 10012G18KT P6SM -RA SCT025 BKN040 FM280600 35007KT P6SM VCSH BKN040
  Airport Weather Conditions for 4K0

Current weather conditions are
not available for 4K0


The nearest NOAA weather station
is at ILI, (23.7 nm SW from 4K0)
  
 Current Weather at ILI
56° F
Overcast and Breezy
East winds at 20.7 mph
ILI NOAA Radar

Pressure: 29.70 in
Humidity: 77%
Wind: from the East at 20.7 gusting to 31.1 MPH (18 gusting to 27 KT)
Dew Point: 48.9°F
Visibility: 9.00 mi


Airport Weather Forecast for 4K0

Translated METAR and TAF for PAIL
Translated METAR for PAIL (0101 UTC 28 August 2014)
found at http://aviationweather.gov/adds/metars/
 
METAR text: PAIL 280053Z 09014G23KT 9SM BKN037 OVC047 12/10 A2969 RMK AO2 PK WND 10028/0013 SLP055 T01220100 $
Conditions at: PAIL (ILIAMNA , AK, US) observed 0053 UTC 28 August 2014
Temperature: 12.2°C (54°F)
Dewpoint: 10.0°C (50°F) [RH = 86%]
Pressure (altimeter): 29.69 inches Hg (1005.5 mb)
[Sea-level pressure: 1005.5 mb]
Winds: from the E (90 degrees) at 16 MPH (14 knots; 7.3 m/s)
gusting to 26 MPH (23 knots; 12.0 m/s)
Visibility: 9 miles (14 km)
Ceiling: 3700 feet AGL
Clouds: broken clouds at 3700 feet AGL
overcast cloud deck at 4700 feet AGL
Weather:
SOME DATA ABOVE MAY BE INACCURATE!!!
"$" is an indication the sensor requires maintenance
Translated TAF for PAIL
Forecast for: PAIL (ILIAMNA , AK, US)
TAF Text: PAIL 272340Z 2800/2824 10012G18KT P6SM -SHRA SCT025 BKN040
Forecast period: 0000 to 0600 UTC 28 August 2014
Forecast type: FROM: standard forecast or significant change
Winds: from the E (100 degrees) at 14 MPH (12 knots; 6.2 m/s)
gusting to 21 MPH (18 knots; 9.4 m/s)
Visibility: 6 or more miles (10+ km)
Ceiling: 4000 feet AGL
Clouds: scattered clouds at 2500 feet AGL
broken clouds at 4000 feet AGL
Weather: -SHRA  (light rain showers)
TAF Text: FM280600 34007KT P6SM VCSH BKN040
Forecast period: 0600 UTC 28 August 2014 to 0000 UTC 29 August 2014
Forecast type: FROM: standard forecast or significant change
Winds: from the NNW (340 degrees) at 8 MPH (7 knots; 3.6 m/s)
Visibility: 6 or more miles (10+ km)
Ceiling: 4000 feet AGL
Clouds: broken clouds at 4000 feet AGL
Weather: VCSH  (showers in vicinity)

Find All Airport Services Find A Hotel Find A Rental Car Find A Golf Course Find A Restaurant $100 Hamburger



FBO's on the Field
FBO Company Facility Photos Services Transportation Aviation Fuel Prices: Prices include tax
Catering Weather Repair Courtesy Rental Type 100LL JetA JetA+ MOGAS 8087
 
Add another FBO Facility Photos Catering Weather Repair Courtesy Rental Type 100LL JetA JetA+ MOGAS 8087
Services Transportation Aviation Fuel Prices: Prices include tax
There are no FBO's currently reporting fuel at 4K0. List your FBO now


GlobalAir.com Airport Resource Center model-print
model-print
model-print
model-print